Airfield :
LOGIN :

Register | Disclaimer

   EN    FR    IT 

 










Legend :    VFR   Marginal VFR   IFR   Intensive IFR   Very Intensive IFR
Visi :
Ceiling :
>= 8 km
>= 3000ft
5 to 8 km
1000 to 3000 ft
1500m to 5 km
500 to 1000 ft
800 to 1500m
200 to 500 ft
< 800m
< 200 ft
Symbols :   Thunderstorms  Fog  Heavy snow  Heavy precipitations  Wind > 20 kt
SIGMETs :     Misc.  Thunderstorms  Icing  Turbulence  Mountain Waves  Volcanic Ashes







- Airport Elevation : 80 ft
- IATA code : LPL
- Download approach charts


EGGP - Liverpool John Lennon

CURRENT METAR :
  • 160720Z 16009KT CAVOK 04/02 Q1002

EXPIRED METARs :
  • 160650Z 17008KT CAVOK 05/03 Q1002
  • 160620Z 18007KT CAVOK 05/03 Q1001
  • 160550Z 16008KT CAVOK 05/02 Q1001
  • 160520Z 16006KT 130V190 CAVOK 06/02 Q1001
  • 160450Z 19007KT CAVOK 06/03 Q1000

TAF TAF EGGP
Valid from the 16 at 06:00 until the 17 at 06:00 UTC


160457Z 1606/1706 19008KT 9999 FEW025
BECMG 1612/1615 13010KT
TEMPO 1616/1622 7000 RA BKN014
PROB30
TEMPO 1616/1621 4000 +RA BKN007
BECMG 1621/1624 VRB03KT
TEMPO 1622/1624 BKN012
PROB30 1702/1706 7000
ATIS : +44 151 907 2000 (option 5 or ext 5150)
Met : +44 871 750 5150
No reported NOTAMs for that airfield.
1 SIGMET reported for the London FIR (EGTT) :
 
Severe icing
EGTT SIGMET 03 VALID 160600/161000 EGRR
EGTT LONDON FIR SEV ICE FCST NE OF LINE N5428 E00428 - N5500 E00412 FL030/080 MOV NE 15KT WKN=



MET'MAP, your aeronautical weather chart ! - Copyright ORBIFLY December 2007 - Disclaimer

ORBIFLY MET'MAP TEAM :

Programming & Development : Alexandra Zaïnal
Concept & Development : Baudouin d'Aumeries
Co-Development & Prog : Marc-Olivier Méhu
Technical & hardware support : Manuel Goepfert

Contact : metmap@orbifly.com




SOURCES & CREDITS :

   NOAA